createdAt,value
2023-03-16T00:00:05.037Z,1.65
2023-03-16T00:05:06.213Z,1.68
2023-03-16T00:10:07.416Z,1.71
2023-03-16T00:15:09.007Z,1.67
2023-03-16T00:20:10.974Z,1.70
2023-03-16T00:25:12.198Z,1.66
2023-03-16T00:30:13.467Z,1.62
2023-03-16T00:35:14.618Z,1.67
2023-03-16T00:40:15.930Z,1.66
2023-03-16T00:45:17.081Z,1.69
2023-03-16T00:50:22.080Z,1.70
2023-03-16T00:55:23.243Z,1.78
2023-03-16T01:00:28.327Z,1.80
2023-03-16T01:05:29.817Z,1.86
2023-03-16T01:10:31.022Z,1.88
2023-03-16T01:15:32.950Z,1.96
2023-03-16T01:20:34.186Z,2.04
2023-03-16T01:25:35.405Z,2.08
2023-03-16T01:30:36.771Z,2.13
2023-03-16T01:35:38.048Z,2.14
2023-03-16T01:40:39.271Z,2.22
2023-03-16T01:45:40.497Z,2.24
2023-03-16T01:50:42.101Z,2.25
2023-03-16T01:55:43.341Z,2.27
2023-03-16T02:00:45.639Z,2.29
2023-03-16T02:05:46.901Z,2.31
2023-03-16T02:10:48.054Z,2.28
2023-03-16T02:15:49.348Z,2.28
2023-03-16T02:20:50.650Z,2.27
2023-03-16T02:25:51.872Z,2.22
2023-03-16T02:30:53.123Z,2.22
2023-03-16T02:35:54.302Z,2.22
2023-03-16T02:40:56.189Z,2.22
2023-03-16T02:45:57.400Z,2.17
2023-03-16T02:50:58.602Z,2.13
2023-03-16T02:55:59.817Z,2.14
2023-03-16T03:01:01.502Z,2.15
2023-03-16T03:06:02.716Z,2.17
2023-03-16T03:11:03.935Z,2.17
2023-03-16T03:16:05.305Z,2.23
2023-03-16T03:21:06.540Z,2.28
2023-03-16T03:26:07.868Z,2.28
2023-03-16T03:31:09.256Z,2.27
2023-03-16T03:36:11.221Z,2.29
2023-03-16T03:41:12.734Z,2.30
2023-03-16T03:46:14.060Z,2.26
2023-03-16T03:51:15.341Z,2.20
2023-03-16T03:56:16.643Z,2.15
2023-03-16T04:01:17.886Z,2.13
2023-03-16T04:06:19.102Z,2.11
2023-03-16T04:11:20.806Z,2.04
2023-03-16T04:16:22.097Z,2.01
2023-03-16T04:21:23.401Z,1.98
2023-03-16T04:26:25.654Z,1.90
2023-03-16T04:31:26.855Z,1.92
2023-03-16T04:36:28.079Z,1.93
2023-03-16T04:41:29.264Z,1.98
2023-03-16T04:46:30.534Z,1.97
2023-03-16T04:51:31.755Z,2.01
2023-03-16T04:56:33.843Z,2.09
2023-03-16T05:01:35.010Z,2.17
2023-03-16T05:06:36.334Z,2.22
2023-03-16T05:11:37.469Z,2.29
2023-03-16T05:16:38.755Z,2.37
2023-03-16T05:21:39.977Z,2.39
2023-03-16T05:26:41.138Z,2.40
2023-03-16T05:31:42.420Z,2.43
2023-03-16T05:36:44.996Z,2.47
2023-03-16T05:41:46.307Z,2.51
2023-03-16T05:46:47.616Z,2.54
2023-03-16T05:51:50.204Z,2.56
2023-03-16T05:56:51.384Z,2.62
2023-03-16T06:01:52.575Z,2.69
2023-03-16T06:06:53.755Z,2.75
2023-03-16T06:11:54.912Z,2.78
2023-03-16T06:16:56.088Z,2.86
2023-03-16T06:21:57.273Z,2.92
2023-03-16T06:26:58.428Z,2.95
2023-03-16T06:31:59.981Z,3.02
2023-03-16T06:37:01.139Z,3.16
2023-03-16T06:42:04.394Z,3.28
2023-03-16T06:47:05.680Z,3.33
2023-03-16T06:52:06.912Z,3.41
2023-03-16T06:57:08.070Z,3.55
2023-03-16T07:02:09.338Z,3.67
2023-03-16T07:07:11.687Z,3.77
2023-03-16T07:12:13.689Z,3.84
2023-03-16T07:17:14.859Z,3.95
2023-03-16T07:22:16.049Z,4.04
2023-03-16T07:27:17.229Z,4.13
2023-03-16T07:32:18.406Z,4.19
2023-03-16T07:37:25.182Z,4.27
2023-03-16T07:42:26.869Z,4.39
2023-03-16T07:47:28.500Z,4.50
2023-03-16T07:52:29.664Z,4.66
2023-03-16T07:57:31.318Z,4.79
2023-03-16T08:02:32.658Z,4.95
2023-03-16T08:07:33.899Z,5.05
2023-03-16T08:12:35.072Z,5.08
2023-03-16T08:17:36.720Z,5.13
2023-03-16T08:22:37.936Z,5.26
2023-03-16T08:27:39.153Z,5.47
2023-03-16T08:32:41.002Z,5.74
2023-03-16T08:37:42.244Z,5.91
2023-03-16T08:42:44.871Z,5.99
2023-03-16T08:47:46.037Z,6.00
2023-03-16T08:52:48.936Z,6.17
2023-03-16T08:57:50.272Z,6.17
2023-03-16T09:02:51.389Z,6.16
2023-03-16T09:07:53.531Z,6.25
2023-03-16T09:12:54.809Z,6.49
2023-03-16T09:17:57.420Z,6.53
2023-03-16T09:22:58.943Z,6.62
2023-03-16T09:28:00.934Z,6.74
2023-03-16T09:33:02.231Z,7.14
2023-03-16T09:38:05.978Z,7.75
2023-03-16T09:43:08.450Z,8.35
2023-03-16T09:48:09.664Z,8.71
2023-03-16T09:53:10.841Z,8.97
2023-03-16T09:58:12.159Z,9.21
2023-03-16T10:03:13.499Z,9.28
2023-03-16T10:08:14.782Z,9.13
2023-03-16T10:13:16.003Z,8.49
2023-03-16T10:18:17.237Z,8.27
2023-03-16T10:23:18.436Z,8.14
2023-03-16T10:28:19.745Z,8.13
2023-03-16T10:33:20.908Z,8.21
2023-03-16T10:38:22.536Z,8.51
2023-03-16T10:43:24.262Z,8.79
2023-03-16T10:48:26.563Z,8.75
2023-03-16T10:53:28.630Z,8.81
2023-03-16T10:58:30.811Z,9.12
2023-03-16T11:03:32.323Z,9.75
2023-03-16T11:08:33.792Z,10.15
2023-03-16T11:13:35.072Z,10.41
2023-03-16T11:18:36.252Z,10.33
2023-03-16T11:23:37.485Z,10.23
2023-03-16T11:28:38.751Z,11.47
2023-03-16T11:33:40.174Z,12.61
2023-03-16T11:38:41.867Z,12.58
2023-03-16T11:43:43.069Z,13.27
2023-03-16T11:48:44.472Z,13.14
2023-03-16T11:53:45.894Z,13.40
2023-03-16T11:58:47.083Z,13.49
2023-03-16T12:03:50.212Z,13.43
2023-03-16T12:08:53.575Z,13.49
2023-03-16T12:13:54.725Z,13.93
2023-03-16T12:18:56.107Z,14.15
2023-03-16T12:23:57.563Z,14.12
2023-03-16T12:28:59.716Z,13.45
2023-03-16T12:34:00.976Z,12.60
2023-03-16T12:39:03.880Z,12.22
2023-03-16T12:44:05.423Z,11.91
2023-03-16T12:49:06.811Z,11.76
2023-03-16T12:54:08.902Z,11.85
2023-03-16T12:59:11.638Z,11.93
2023-03-16T13:04:12.871Z,11.91
2023-03-16T13:09:15.199Z,11.89
2023-03-16T13:14:17.026Z,12.03
2023-03-16T13:19:18.273Z,12.16
2023-03-16T13:24:19.653Z,12.33
2023-03-16T13:29:21.491Z,12.61
2023-03-16T13:34:23.233Z,12.68
2023-03-16T13:39:24.447Z,12.99
2023-03-16T13:44:26.152Z,13.17
2023-03-16T13:49:27.496Z,13.12
2023-03-16T13:54:29.661Z,13.19
2023-03-16T13:59:31.449Z,13.09
2023-03-16T14:04:32.793Z,13.07
2023-03-16T14:09:34.409Z,13.07
2023-03-16T14:14:35.637Z,13.06
2023-03-16T14:19:42.195Z,13.06
2023-03-16T14:24:44.286Z,12.79
2023-03-16T14:29:45.813Z,12.77
2023-03-16T14:34:47.004Z,12.66
2023-03-16T14:39:48.688Z,12.48
2023-03-16T14:44:50.448Z,12.44
2023-03-16T14:49:52.192Z,12.54
2023-03-16T14:54:55.023Z,12.57
2023-03-16T14:59:56.301Z,12.64
2023-03-16T15:04:57.563Z,12.62
2023-03-16T15:09:58.860Z,12.44
2023-03-16T15:15:16.515Z,12.11
2023-03-16T15:20:17.800Z,11.93
2023-03-16T15:25:19.483Z,11.92
2023-03-16T15:30:21.758Z,11.88
2023-03-16T15:35:23.169Z,11.93
2023-03-16T15:40:24.437Z,11.96
2023-03-16T15:45:25.757Z,11.93
2023-03-16T15:50:27.144Z,11.69
2023-03-16T15:55:28.470Z,11.55
2023-03-16T16:00:30.141Z,11.44
2023-03-16T16:05:32.367Z,11.36
2023-03-16T16:10:33.980Z,11.15
2023-03-16T16:15:36.959Z,11.00
2023-03-16T16:20:38.405Z,10.86
2023-03-16T16:25:40.278Z,10.73
2023-03-16T16:30:41.568Z,10.59
2023-03-16T16:35:42.908Z,10.50
2023-03-16T16:40:46.249Z,10.39
2023-03-16T16:45:47.941Z,10.35
2023-03-16T16:50:49.171Z,10.29
2023-03-16T16:55:50.449Z,10.23
2023-03-16T17:00:51.662Z,10.17
2023-03-16T17:05:53.059Z,10.09
2023-03-16T17:10:54.396Z,10.01
2023-03-16T17:15:55.556Z,9.89
2023-03-16T17:20:56.955Z,9.79
2023-03-16T17:25:58.394Z,9.66
2023-03-16T17:30:59.615Z,9.54
2023-03-16T17:36:02.382Z,9.43
2023-03-16T17:41:03.584Z,9.37
2023-03-16T17:46:04.866Z,9.27
2023-03-16T17:51:07.794Z,9.16
2023-03-16T17:56:08.949Z,9.08
2023-03-16T18:01:10.593Z,8.98
2023-03-16T18:06:11.781Z,8.90
2023-03-16T18:11:12.918Z,8.86
2023-03-16T18:16:14.130Z,8.75
2023-03-16T18:21:15.320Z,8.69
2023-03-16T18:26:16.598Z,8.66
2023-03-16T18:31:17.905Z,8.58
2023-03-16T18:36:19.218Z,8.55
2023-03-16T18:41:20.945Z,8.53
2023-03-16T18:46:22.633Z,8.48
2023-03-16T18:51:23.910Z,8.47
2023-03-16T18:56:25.081Z,8.49
2023-03-16T19:01:26.379Z,8.43
2023-03-16T19:06:29.495Z,8.39
2023-03-16T19:11:31.258Z,8.29
2023-03-16T19:16:32.545Z,8.26
2023-03-16T19:21:33.761Z,8.17
2023-03-16T19:26:34.913Z,8.09
2023-03-16T19:31:36.194Z,8.07
2023-03-16T19:36:38.334Z,8.07
2023-03-16T19:41:39.820Z,8.04
2023-03-16T19:46:41.020Z,7.97
2023-03-16T19:51:42.235Z,7.94
2023-03-16T19:56:43.541Z,7.84
2023-03-16T20:01:44.882Z,7.83
2023-03-16T20:06:48.720Z,7.83
2023-03-16T20:11:51.393Z,7.76
2023-03-16T20:16:53.177Z,7.72
2023-03-16T20:21:54.441Z,7.73
2023-03-16T20:26:55.715Z,7.70
2023-03-16T20:31:56.992Z,7.72
2023-03-16T20:36:58.237Z,7.64
2023-03-16T20:41:59.486Z,7.59
2023-03-16T20:47:00.849Z,7.58
2023-03-16T20:52:02.086Z,7.49
2023-03-16T20:57:03.277Z,7.52
2023-03-16T21:02:06.071Z,7.49
2023-03-16T21:07:07.397Z,7.43
2023-03-16T21:12:09.340Z,7.40
2023-03-16T21:17:10.765Z,7.39
2023-03-16T21:22:11.918Z,7.41
2023-03-16T21:27:13.107Z,7.40
2023-03-16T21:32:14.356Z,7.39
2023-03-16T21:37:15.612Z,7.35
2023-03-16T21:42:17.277Z,7.44
2023-03-16T21:47:18.450Z,7.40
2023-03-16T21:52:19.701Z,7.47
2023-03-16T21:57:21.154Z,7.48
2023-03-16T22:02:22.570Z,7.37
2023-03-16T22:07:23.974Z,7.29
2023-03-16T22:12:25.129Z,7.22
2023-03-16T22:17:28.637Z,7.22
2023-03-16T22:22:30.747Z,7.18
2023-03-16T22:27:31.988Z,7.18
2023-03-16T22:32:33.218Z,7.18
2023-03-16T22:37:34.859Z,7.20
2023-03-16T22:42:37.041Z,7.25
2023-03-16T22:47:39.142Z,7.28
2023-03-16T22:52:40.316Z,7.32
2023-03-16T22:57:41.683Z,7.35
2023-03-16T23:02:43.262Z,7.40
2023-03-16T23:07:46.276Z,7.45
2023-03-16T23:12:47.703Z,7.46
2023-03-16T23:17:48.961Z,7.45
2023-03-16T23:22:50.191Z,7.43
2023-03-16T23:27:51.571Z,7.46
2023-03-16T23:32:53.073Z,7.46
2023-03-16T23:37:54.701Z,7.43
2023-03-16T23:42:55.925Z,7.44
2023-03-16T23:47:57.219Z,7.46
2023-03-16T23:52:58.533Z,7.44
2023-03-16T23:57:59.785Z,7.52
